Data for 10/02/2016

Time Sea-Level Adjusted Pressure Absolute Pressure Temperature Relative Humidity Dew Point   
(mb) (inHg) (mb) (inHg) (C) (F) (%) (C) (F)
00:05 1019 30.09 849 25.07 8.1 46.6 88 6.2 43.2
00:10 1019 30.09 849 25.07 8 46.4 88 6.1 43.1
00:15 1019 30.09 849 25.07 7.9 46.3 88 6 42.9
00:20 1019 30.09 849 25.07 7.9 46.3 88 6 42.9
00:25 1019 30.09 849 25.07 8 46.5 87 6 42.9
00:30 1019 30.09 849 25.07 8.2 46.7 87 6.1 43
00:35 1019 30.09 849 25.07 8.3 47 85 6.1 42.9
00:40 1019 30.09 849 25.07 8.3 46.9 86 6.1 42.9
00:45 1019 30.09 849 25.07 8.2 46.7 86 6 42.7
00:50 1019 30.09 849 25.07 7.9 46.2 87 5.9 42.6
00:55 1019 30.09 849 25.07 7.8 46 87 5.8 42.4
01:00 1019 30.09 849 25.07 7.4 45.3 88 5.5 41.9
01:05 1020 30.12 849 25.07 7.2 45 89 5.5 41.9
01:10 1019 30.09 849 25.07 7.2 44.9 89 5.4 41.8
01:15 1019 30.09 849 25.07 7.1 44.9 89 5.4 41.7
01:20 1020 30.12 849 25.07 7.2 44.9 88 5.4 41.6
01:25 1020 30.12 849 25.07 7.2 44.9 88 5.4 41.6
01:30 1020 30.12 849 25.07 7.2 44.9 89 5.4 41.8
01:35 1020 30.12 849 25.07 7.3 45.2 88 5.5 41.8
01:40 1020 30.12 849 25.07 7.5 45.4 87 5.5 41.9
01:45 1020 30.12 849 25.07 7.6 45.7 86 5.5 41.9
01:50 1020 30.12 849 25.07 7.5 45.6 86 5.4 41.7
01:55 1019 30.09 849 25.07 7.3 45.2 87 5.2 41.4
02:00 1019 30.09 849 25.07 7.2 45 87 5.1 41.2
02:05 1019 30.09 849 25.07 7.1 44.9 87 5.1 41.1
02:10 1019 30.09 849 25.07 7.1 44.8 87 5.1 41.2
02:15 1019 30.09 849 25.07 7.1 44.8 87 5.1 41.1
02:20 1019 30.09 848 25.04 7 44.6 87 5 41.1
02:25 1019 30.09 848 25.04 7 44.5 87 4.9 40.9
02:30 1019 30.09 848 25.04 6.8 44.2 87 4.9 40.7
02:35 1019 30.09 848 25.04 6.8 44.2 88 4.8 40.7
02:40 1019 30.09 848 25.04 6.9 44.4 87 4.9 40.8
02:45 1019 30.09 848 25.04 7.1 44.7 86 5 40.9
02:50 1019 30.09 849 25.07 7.3 45.1 86 5 41
02:55 1019 30.09 849 25.07 7.3 45.2 85 5 41
03:00 1019 30.09 848 25.04 7.4 45.4 85 5.1 41.2
03:05 1019 30.09 848 25.04 7.2 44.9 86 5 40.9
03:10 1019 30.09 848 25.04 6.9 44.4 86 4.7 40.5
03:15 1019 30.09 849 25.07 6.9 44.3 86 4.6 40.3
03:20 1019 30.09 849 25.07 6.9 44.4 85 4.6 40.3
03:25 1019 30.09 848 25.04 7.1 44.7 85 4.7 40.5
03:30 1019 30.09 848 25.04 7.2 45 84 4.7 40.5
03:35 1019 30.09 848 25.04 7.1 44.8 85 4.7 40.5
03:40 1019 30.09 848 25.04 7.3 45.1 83 4.6 40.2
03:45 1019 30.09 848 25.04 6.9 44.5 84 4.4 40
03:50 1019 30.09 848 25.04 6.8 44.2 84 4.3 39.8
03:55 1019 30.09 848 25.04 6.6 43.9 84 4.2 39.5
04:00 1019 30.09 848 25.04 6.5 43.6 86 4.2 39.6
04:05 1019 30.09 848 25.04 6.8 44.2 83 4.1 39.3
04:10 1019 30.09 848 25.04 6.8 44.3 84 4.3 39.8
04:15 1019 30.09 848 25.04 6.5 43.7 86 4.3 39.8
04:20 1019 30.09 848 25.04 6.9 44.4 82 4.1 39.4
04:25 1019 30.09 848 25.04 7 44.6 83 4.3 39.8
04:30 1019 30.09 848 25.04 6.2 43.2 87 4.2 39.5
04:35 1019 30.09 848 25.04 6 42.7 88 4.1 39.3
04:40 1019 30.09 848 25.04 6.2 43.2 85 3.9 39.1
04:45 1019 30.09 848 25.04 6.7 44 85 4.3 39.7
04:50 1019 30.09 848 25.04 7.1 44.8 82 4.2 39.6
04:55 1019 30.09 848 25.04 6.9 44.4 83 4.2 39.5
05:00 1019 30.09 848 25.04 6.7 44.1 84 4.2 39.6
05:05 1019 30.09 848 25.04 6.6 43.9 84 4.1 39.3
05:10 1019 30.09 848 25.04 6.6 43.9 85 4.3 39.7
05:15 1019 30.09 848 25.04 6.4 43.6 85 4.2 39.5
05:20 1019 30.09 848 25.04 6.6 43.8 85 4.2 39.6
05:25 1019 30.09 848 25.04 7.1 44.7 81 4.1 39.4
05:30 1019 30.09 848 25.04 7.2 45 81 4.2 39.6
05:35 1019 30.09 848 25.04 6.7 44.1 83 4.1 39.4
05:40 1019 30.09 848 25.04 6.1 42.9 86 3.9 39.1
05:45 1019 30.09 848 25.04 6.3 43.3 85 3.9 39
05:50 1019 30.09 848 25.04 6.5 43.8 83 3.9 39.1
05:55 1019 30.09 848 25.04 6.6 43.8 82 3.7 38.7
06:00 1019 30.09 848 25.04 6.2 43.2 85 3.8 38.8
06:05 1019 30.09 848 25.04 6.2 43.1 85 3.8 38.8
06:10 1019 30.09 848 25.04 6.7 44.1 83 4.1 39.4
06:15 1019 30.09 848 25.04 7 44.6 83 4.3 39.7
06:20 1019 30.09 848 25.04 7.6 45.6 81 4.5 40.1
06:25 1019 30.09 848 25.04 8 46.4 80 4.7 40.5
06:30 1019 30.09 848 25.04 8.5 47.4 77 4.8 40.6
06:35 1019 30.09 848 25.04 8.9 48 75 4.8 40.6
06:40 1019 30.09 848 25.04 9.1 48.3 75 4.9 40.9
06:45 1019 30.09 848 25.04 9.1 48.4 75 4.9 40.8
06:50 1019 30.09 848 25.04 9.1 48.4 75 4.8 40.7
06:55 1019 30.09 848 25.04 9.1 48.4 74 4.8 40.6
07:00 1019 30.09 848 25.04 9.1 48.4 75 4.9 40.8
07:05 1019 30.09 848 25.04 9.1 48.4 75 4.9 40.8
07:10 1019 30.09 848 25.04 9.2 48.5 74 4.8 40.6
07:15 1019 30.09 848 25.04 9.2 48.6 73 4.7 40.4
07:20 1019 30.09 848 25.04 9.3 48.7 74 5 40.9
07:25 1019 30.09 848 25.04 8.8 47.8 79 5.3 41.5
07:30 1019 30.09 848 25.04 8.2 46.7 81 5.2 41.3
07:35 1019 30.09 848 25.04 7.8 46.1 82 4.9 40.8
07:40 1019 30.09 848 25.04 7.9 46.2 82 5.1 41.1
07:45 1019 30.09 848 25.04 7.8 46.1 81 4.8 40.6
07:50 1019 30.09 848 25.04 8 46.4 82 5 41
07:55 1019 30.09 848 25.04 7.8 46.1 82 5 40.9
08:00 1019 30.09 848 25.04 8.4 47.1 76 4.4 40
08:05 1019 30.09 848 25.04 9 48.2 74 4.6 40.4
08:10 1019 30.09 848 25.04 9.2 48.5 74 4.7 40.5
08:15 1019 30.09 848 25.04 9.5 49 72 4.7 40.4
08:20 1019 30.09 848 25.04 9.7 49.5 73 5.1 41.2
08:25 1019 30.09 848 25.04 9.8 49.6 73 5.2 41.3
08:30 1018 30.06 848 25.04 9.8 49.7 72 5.1 41.2
08:35 1018 30.06 848 25.04 10.2 50.3 72 5.4 41.8
08:40 1018 30.06 848 25.04 10.5 50.8 71 5.4 41.8
08:45 1018 30.06 848 25.04 10.5 51 70 5.4 41.6
08:50 1018 30.06 848 25.04 10.7 51.2 69 5.3 41.6
08:55 1018 30.06 848 25.04 11.1 51.9 68 5.4 41.6
09:00 1018 30.06 848 25.04 11.3 52.3 68 5.6 42.2
09:05 1018 30.06 847 25.01 11.5 52.7 67 5.5 42
09:10 1018 30.06 847 25.01 11.3 52.3 69 5.8 42.4
09:15 1018 30.06 847 25.01 11.2 52.1 70 5.9 42.6
09:20 1018 30.06 847 25.01 11.1 52 69 5.6 42.1
09:25 1018 30.06 847 25.01 11 51.8 69 5.6 42.2
09:30 1018 30.06 847 25.01 11 51.7 70 5.8 42.4
09:35 1018 30.06 847 25.01 11 51.7 71 5.8 42.5
09:40 1018 30.06 847 25.01 10.9 51.6 71 5.8 42.4
09:45 1018 30.06 847 25.01 10.8 51.4 71 5.8 42.5
09:50 1018 30.06 848 25.04 10.7 51.3 70 5.5 41.9
09:55 1018 30.06 848 25.04 10.6 51.2 69 5.2 41.3
10:00 1019 30.09 848 25.04 10.6 51.1 68 5.1 41.1
10:05 1019 30.09 848 25.04 10.6 51.1 68 4.9 40.8
10:10 1019 30.09 848 25.04 10.6 51.1 68 5 41
10:15 1019 30.09 848 25.04 10.7 51.2 67 4.8 40.6
10:20 1019 30.09 848 25.04 10.7 51.2 66 4.6 40.4
10:25 1019 30.09 848 25.04 10.6 51.1 66 4.5 40.2
10:30 1019 30.09 848 25.04 10.5 50.9 66 4.4 39.9
10:35 1019 30.09 848 25.04 10.4 50.8 68 4.7 40.5
10:40 1018 30.06 847 25.01 10.4 50.6 68 4.7 40.5
10:45 1018 30.06 847 25.01 10.4 50.7 67 4.6 40.3
10:50 1018 30.06 847 25.01 10.6 51 67 4.8 40.6
10:55 1017 30.03 847 25.01 10.9 51.7 63 4.2 39.5
11:00 1017 30.03 846 24.98 11.5 52.7 60 4.1 39.4
11:05 1017 30.03 846 24.98 12.2 53.9 58 4.3 39.7
11:10 1017 30.03 846 24.98 12.3 54.2 59 4.5 40.1
11:15 1017 30.03 846 24.98 12.5 54.6 56 4.1 39.4
11:20 1017 30.03 846 24.98 12.7 54.9 57 4.4 40
11:25 1017 30.03 846 24.98 12.8 55 56 4.3 39.7
11:30 1017 30.03 846 24.98 12.7 54.8 57 4.4 39.9
11:35 1017 30.03 846 24.98 12.6 54.6 57 4.4 39.9
11:40 1017 30.03 846 24.98 12.7 54.8 58 4.6 40.4
11:45 1016 30 846 24.98 12.8 55 57 4.7 40.4
11:50 1016 30 846 24.98 12.9 55.3 57 4.7 40.4
11:55 1016 30 846 24.98 13 55.4 57 4.7 40.4
12:00 1016 30 845 24.95 13.1 55.6 57 4.7 40.5
12:05 1016 30 845 24.95 13.1 55.6 56 4.7 40.4
12:10 1016 30 845 24.95 13.4 56.2 56 4.8 40.6
12:15 1016 30 845 24.95 13.8 56.9 53 4.6 40.3
12:20 1016 30 845 24.95 14 57.2 53 4.7 40.4
12:25 1016 30 845 24.95 13.9 56.9 56 5.2 41.4
12:30 1016 30 845 24.95 13.8 56.8 55 5 40.9
12:35 1016 30 845 24.95 13.9 57 55 5 41
12:40 1016 30 845 24.95 13.7 56.7 55 5 40.9
12:45 1016 30 845 24.95 13.6 56.6 56 5 41
12:50 1016 30 845 24.95 13.7 56.7 54 4.6 40.3
12:55 1016 30 845 24.95 13.7 56.7 54 4.6 40.2
13:00 1016 30 845 24.95 13.6 56.5 54 4.6 40.2
13:05 1016 30 845 24.95 13.7 56.6 60 6.1 43
13:10 1016 30 845 24.95 12.7 54.8 71 7.6 45.6
13:15 1016 30 845 24.95 11.2 52.2 77 7.3 45.2
13:20 1016 30 846 24.98 10.3 50.5 80 7 44.6
13:25 1016 30 846 24.98 9.9 49.8 83 7.1 44.8
13:30 1016 30 846 24.98 9.5 49.1 84 6.9 44.5
13:35 1016 30 846 24.98 9.2 48.5 86 7 44.6
13:40 1016 30 845 24.95 9 48.1 88 7 44.7
13:45 1016 30 845 24.95 8.7 47.7 89 7 44.7
13:50 1017 30.03 846 24.98 8.7 47.7 90 7.1 44.7
13:55 1017 30.03 846 24.98 8.8 47.8 89 7 44.6
14:00 1017 30.03 846 24.98 8.5 47.3 91 7.1 44.8
14:05 1017 30.03 846 24.98 8.6 47.4 89 6.9 44.4
14:10 1017 30.03 846 24.98 8.7 47.6 91 7.2 45
14:15 1016 30 845 24.95 9 48.2 89 7.3 45.2
14:20 1016 30 845 24.95 9.3 48.8 87 7.3 45.1
14:25 1016 30 845 24.95 10 50 86 7.7 45.9
14:30 1016 30 845 24.95 10.2 50.3 85 7.7 45.8
14:35 1016 30 845 24.95 10.3 50.6 83 7.6 45.8
14:40 1016 30 845 24.95 9.8 49.7 82 7 44.5
14:45 1016 30 845 24.95 9.5 49.1 83 6.8 44.2
14:50 1016 30 845 24.95 9.3 48.8 84 6.7 44.1
14:55 1016 30 845 24.95 9.3 48.7 86 7 44.6
15:00 1016 30 845 24.95 9.4 48.9 81 6.4 43.5
15:05 1015 29.97 845 24.95 9.7 49.5 81 6.7 44.1
15:10 1015 29.97 845 24.95 10.1 50.3 80 6.9 44.3
15:15 1015 29.97 844 24.92 10.3 50.6 81 7.2 44.9
15:20 1015 29.97 844 24.92 10.4 50.7 81 7.3 45.1
15:25 1015 29.97 844 24.92 10.5 50.8 80 7.1 44.8
15:30 1015 29.97 844 24.92 10.5 51 81 7.4 45.3
15:35 1014 29.94 844 24.92 10.6 51 80 7.3 45.1
15:40 1014 29.94 843 24.89 10.5 50.9 79 7.1 44.7
15:45 1014 29.94 843 24.89 10.7 51.3 79 7.2 45
15:50 1014 29.94 843 24.89 11 51.8 78 7.3 45.2
15:55 1014 29.94 843 24.89 11.1 52.1 79 7.6 45.6
16:00 1014 29.94 843 24.89 11.4 52.5 78 7.7 45.9
16:05 1014 29.94 843 24.89 11.5 52.6 76 7.5 45.5
16:10 1014 29.94 843 24.89 11.6 52.8 76 7.4 45.4
16:15 1014 29.94 843 24.89 11.7 53 76 7.7 45.8
16:20 1014 29.94 843 24.89 11.7 53.1 75 7.5 45.5
16:25 1014 29.94 843 24.89 11.8 53.2 75 7.5 45.5
16:30 1014 29.94 843 24.89 11.8 53.2 75 7.5 45.4
16:35 1014 29.94 843 24.89 11.7 53 76 7.6 45.6
16:40 1014 29.94 843 24.89 11.7 53 75 7.4 45.3
16:45 1014 29.94 843 24.89 11.7 53.1 75 7.4 45.3
16:50 1014 29.94 843 24.89 11.7 53 78 7.9 46.2
16:55 1014 29.94 843 24.89 11.1 52 82 8.2 46.8
17:00 1014 29.94 843 24.89 10.6 51.2 83 7.9 46.3
17:05 1014 29.94 843 24.89 10.7 51.2 82 7.8 46
17:10 1014 29.94 843 24.89 10.5 50.9 84 7.9 46.2
17:15 1014 29.94 843 24.89 10.1 50.2 85 7.7 45.9
17:20 1014 29.94 843 24.89 10.3 50.6 83 7.6 45.6
17:25 1014 29.94 843 24.89 10.3 50.6 83 7.5 45.5
17:30 1014 29.94 843 24.89 10.3 50.6 86 8 46.5
17:35 1014 29.94 843 24.89 10.4 50.6 86 8.1 46.5
17:40 1013 29.91 843 24.89 10.4 50.7 86 8.1 46.6
17:45 1013 29.91 843 24.89 10.3 50.6 86 8.1 46.7
17:50 1014 29.94 843 24.89 10.2 50.4 86 7.9 46.3
17:55 1014 29.94 843 24.89 10.2 50.4 85 7.9 46.1
18:00 1014 29.94 843 24.89 10.3 50.5 86 8 46.5
18:05 1014 29.94 843 24.89 10.2 50.3 86 8 46.4
18:10 1014 29.94 843 24.89 10.2 50.3 85 7.8 46.1
18:15 1014 29.94 843 24.89 10.2 50.4 85 7.8 46
18:20 1014 29.94 843 24.89 10.2 50.4 86 7.9 46.3
18:25 1014 29.94 843 24.89 10.1 50.3 85 7.8 46.1
18:30 1014 29.94 843 24.89 10.1 50.2 85 7.8 46
18:35 1014 29.94 843 24.89 10.1 50.2 86 7.9 46.3
18:40 1014 29.94 843 24.89 10.1 50.2 86 7.8 46.1
18:45 1014 29.94 843 24.89 10 50.1 87 7.9 46.2
18:50 1014 29.94 843 24.89 9.9 49.9 88 8 46.4
18:55 1014 29.94 843 24.89 9.8 49.7 88 8 46.4
19:00 1014 29.94 843 24.89 9.7 49.5 89 8 46.4
19:05 1014 29.94 843 24.89 9.6 49.3 90 8 46.4
19:10 1014 29.94 843 24.89 9.6 49.2 90 7.9 46.3
19:15 1014 29.94 843 24.89 9.5 49 90 7.9 46.1
19:20 1014 29.94 843 24.89 9.4 48.9 90 7.8 46
19:25 1014 29.94 843 24.89 9.3 48.8 90 7.7 45.9
19:30 1014 29.94 843 24.89 9.3 48.8 90 7.8 46
19:35 1014 29.94 843 24.89 9.2 48.6 90 7.7 45.8
19:40 1014 29.94 843 24.89 9.1 48.3 90 7.6 45.6
19:45 1014 29.94 843 24.89 9 48.2 91 7.5 45.6
19:50 1014 29.94 843 24.89 9 48.2 91 7.6 45.6
19:55 1014 29.94 843 24.89 9 48.2 90 7.5 45.5
20:00 1014 29.94 843 24.89 9 48.1 90 7.5 45.4
20:05 1014 29.94 843 24.89 9 48.1 91 7.5 45.6
20:10 1014 29.94 843 24.89 8.9 48.1 91 7.5 45.6
20:15 1013 29.91 843 24.89 8.9 48 91 7.5 45.5
20:20 1013 29.91 843 24.89 8.9 47.9 91 7.5 45.5
20:25 1013 29.91 843 24.89 8.9 47.9 91 7.5 45.5
20:30 1013 29.91 843 24.89 8.9 48.1 91 7.5 45.5
20:35 1013 29.91 842 24.86 9 48.1 91 7.5 45.5
20:40 1013 29.91 842 24.86 9 48.2 91 7.5 45.6
20:45 1013 29.91 842 24.86 9 48.1 90 7.5 45.5
20:50 1013 29.91 842 24.86 9 48.2 90 7.5 45.4
20:55 1013 29.91 842 24.86 9 48.2 90 7.5 45.5
21:00 1013 29.91 842 24.86 9 48.2 90 7.5 45.5
21:05 1012 29.88 842 24.86 9.1 48.3 90 7.5 45.4
21:10 1012 29.88 842 24.86 9.1 48.4 90 7.5 45.5
21:15 1012 29.88 841 24.83 8.9 48.1 90 7.5 45.4
21:20 1012 29.88 841 24.83 8.9 47.9 91 7.5 45.4
21:25 1012 29.88 841 24.83 8.9 47.9 91 7.4 45.3
21:30 1012 29.88 841 24.83 8.9 48.1 89 7.3 45.1
21:35 1012 29.88 841 24.83 9 48.3 89 7.4 45.2
21:40 1012 29.88 842 24.86 9 48.3 89 7.2 45
21:45 1013 29.91 842 24.86 9.1 48.3 88 7.2 44.9
21:50 1013 29.91 842 24.86 9.1 48.4 87 7.1 44.8
21:55 1013 29.91 842 24.86 9.1 48.4 85 6.8 44.2
22:00 1013 29.91 842 24.86 9.3 48.8 85 7 44.5
22:05 1013 29.91 842 24.86 9.5 49 86 7.3 45.1
22:10 1013 29.91 842 24.86 9.2 48.6 88 7.4 45.3
22:15 1013 29.91 842 24.86 9.1 48.4 88 7.2 45
22:20 1013 29.91 842 24.86 9.1 48.3 88 7.2 45
22:25 1013 29.91 842 24.86 9.1 48.3 88 7.2 45
22:30 1013 29.91 842 24.86 8.8 47.8 89 7.1 44.7
22:35 1013 29.91 842 24.86 8.7 47.6 90 7 44.7
22:40 1012 29.88 842 24.86 8.5 47.3 91 7.1 44.7
22:45 1012 29.88 842 24.86 8.4 47.1 92 7.1 44.7
22:50 1012 29.88 841 24.83 8.3 46.9 92 7.1 44.7
22:55 1012 29.88 841 24.83 8.3 46.9 92 7.1 44.8
23:00 1012 29.88 841 24.83 8.4 47.1 92 7.2 44.9
23:05 1012 29.88 841 24.83 8.3 46.9 93 7.1 44.8
23:10 1012 29.88 841 24.83 8.4 47.2 92 7.3 45.1
23:15 1012 29.88 841 24.83 8.5 47.2 92 7.3 45.1
23:20 1012 29.88 841 24.83 8.6 47.4 92 7.3 45.1
23:25 1012 29.88 841 24.83 8.5 47.4 92 7.3 45.1
23:30 1012 29.88 841 24.83 8.5 47.3 91 7.2 45
23:35 1012 29.88 841 24.83 8.5 47.2 92 7.2 44.9
23:40 1012 29.88 841 24.83 8.4 47.2 92 7.2 44.9
23:45 1012 29.88 841 24.83 8.4 47 92 7.1 44.7
23:50 1012 29.88 841 24.83 8.4 47 92 7.1 44.7
23:55 1012 29.88 841 24.83 8.3 47 92 7 44.7
24:00 1012 29.88 841 24.83 8.3 47 92 7 44.6